Weather at Buyant-Ukhaa International Airport

Public forecast

Using degrees Celsius for public forecast. Weather courtesy of forecast.io.

Current aviation weather report (METAR) for Buyant-Ukhaa International Airport

2024/02/22 11:00 (retrieved 42 minutes ago)

ZMUB 221100Z VRB01MPS 9999 BKN100 M15/M23 Q1029 NOSIG

Aviation forecast (TAF) for Buyant-Ukhaa International Airport

2024/02/22 06:54 (retrieved 5 hours ago)

TAF ZMUB 220447Z 2206/2312 VRB02MPS 6000 SCT100 TXM15/2207Z TNM26/2223Z TEMPO 2214/2302 SN SCT030 BKN080